Thunder radar more information blitzortung!


Radar de pluja more information rain snow radar


Visita la nostra xarxa de llocs de meteo:

Template documentation
and downloads

And another site



No particular awareness of the weather is required.    There are no Weather-warnings

Pagina Historial Weather Underground text

Diari Resum Setembre 5, 2017 Unitats:  Imperial    Mètric   Tant
« Previous Dia
SegĂźent Dia »
Diari Setmana Mensual Anual Personalitzada
  Maxima: Minima: Media:
Temperatura: TemperatureC °F 16.6 °F 25.8 °F
Punt de rosada: DewpointC °F 13.9 °F 16.6 °F
Humitat: Humidity % 38 % 59 %
Wind Speed: WindSpeedKMH mph 0.0 mph 6.7 mph
RĂ fegues de vent: WindSpeedGustKMH mph - -
Vent:- - SW
Pression baro: PressurehPa in 1016.8 in -
Precipitacions: 0.0 in    
Historical Graphs
 
 
Dades de taula per Setembre 5, 2017
Temps Temperatura Punt de rosada Pression baro Vent Wind Speed RĂ fegues de vent Humitat Rainfall Rate (Hourly)
TemperatureC °F DewpointC °F PressurehPa in Calm     Humidity % HourlyPrecipMM in
00:00 18.1 °F 15.0 °F 1019.9 in Calm   1.6 mph 82 % 0.0 in
00:02 20.4 °F 15.2 °F 1019.9 in Calm     72 % 0.0 in
00:10 18.1 °F 15.0 °F 1019.9 in NNW 1.6 mph 3.2 mph 82 % 0.0 in
00:20 18.0 °F 14.9 °F 1019.9 in Calm   3.2 mph 82 % 0.0 in
00:30 17.9 °F 14.8 °F 1019.9 in Calm     82 % 0.0 in
00:40 17.6 °F 14.5 °F 1019.9 in Calm   1.6 mph 82 % 0.0 in
00:50 17.4 °F 14.3 °F 1019.9 in WSW 1.6 mph 3.2 mph 82 % 0.0 in
01:00 17.3 °F 14.2 °F 1019.9 in WSW 1.6 mph 3.2 mph 82 % 0.0 in
01:10 17.2 °F 14.3 °F 1019.9 in SW 1.6 mph 3.2 mph 83 % 0.0 in
01:20 17.2 °F 14.3 °F 1019.9 in SW 1.6 mph 3.2 mph 83 % 0.0 in
01:30 17.2 °F 14.3 °F 1019.9 in Calm   1.6 mph 83 % 0.0 in
01:40 17.3 °F 14.6 °F 1019.9 in Calm     84 % 0.0 in
01:50 17.3 °F 14.6 °F 1019.9 in Calm     84 % 0.0 in
02:00 17.0 °F 14.1 °F 1019.9 in Calm   3.2 mph 83 % 0.0 in
02:10 17.0 °F 14.3 °F 1019.9 in Calm     84 % 0.0 in
02:20 16.6 °F 13.9 °F 1019.9 in WSW 1.6 mph 3.2 mph 84 % 0.0 in
02:30 16.7 °F 14.0 °F 1018.8 in SW 1.6 mph 3.2 mph 84 % 0.0 in
02:40 16.7 °F 14.2 °F 1018.8 in Calm   3.2 mph 85 % 0.0 in
02:50 17.0 °F 14.4 °F 1018.8 in Calm   3.2 mph 85 % 0.0 in
03:00 17.6 °F 15.2 °F 1019.9 in Calm   1.6 mph 86 % 0.0 in
03:10 18.4 °F 15.8 °F 1019.9 in Calm     85 % 0.0 in
03:20 19.0 °F 16.1 °F 1019.9 in Calm   1.6 mph 83 % 0.0 in
03:30 19.9 °F 16.6 °F 1019.9 in Calm     81 % 0.0 in
03:40 20.2 °F 16.4 °F 1019.9 in Calm     79 % 0.0 in
03:50 20.2 °F 16.2 °F 1019.9 in NNW 1.6 mph 1.6 mph 78 % 0.0 in
04:00 20.2 °F 16.1 °F 1019.9 in Calm     77 % 0.0 in
04:10 20.3 °F 16.1 °F 1020.9 in West 1.6 mph 1.6 mph 77 % 0.0 in
04:20 21.2 °F 16.8 °F 1020.9 in Calm   3.2 mph 76 % 0.0 in
04:30 21.1 °F 16.5 °F 1019.9 in SSW 1.6 mph 3.2 mph 75 % 0.0 in
04:40 21.4 °F 16.6 °F 1019.9 in SW 1.6 mph 3.2 mph 74 % 0.0 in
04:50 22.1 °F 16.8 °F 1019.9 in Calm   4.8 mph 72 % 0.0 in
05:00 22.6 °F 17.1 °F 1019.9 in NE 3.2 mph 4.8 mph 71 % 0.0 in
05:10 23.3 °F 17.5 °F 1019.9 in NNE 3.2 mph 4.8 mph 70 % 0.0 in
05:20 24.1 °F 17.6 °F 1019.9 in SSE 1.6 mph 4.8 mph 67 % 0.0 in
10:23 23.6 °F 17.3 °F 1020.9 in ESE 5.6 mph 5.6 mph 68 % 0.0 in
10:24 23.6 °F 17.3 °F 1020.9 in ESE 5.6 mph 5.6 mph 68 % 0.0 in
10:29 24.0 °F 17.5 °F 1020.9 in NNW 3.9 mph   67 % 0.0 in
10:34 24.2 °F 17.4 °F 1020.9 in SE 3.7 mph 3.7 mph 66 % 0.0 in
10:39 24.6 °F 18.1 °F 1019.9 in NE 3.9 mph 3.9 mph 67 % 0.0 in
10:44 24.8 °F 18.0 °F 1019.9 in ENE 5.8 mph 5.8 mph 66 % 0.0 in
10:49 24.9 °F 17.9 °F 1019.9 in SSE 1.9 mph 1.9 mph 65 % 0.0 in
10:54 25.4 °F 18.1 °F 1019.9 in North 3.2 mph   64 % 0.0 in
10:59 26.0 °F 18.7 °F 1019.9 in SW 3.7 mph 3.7 mph 64 % 0.0 in
11:04 26.4 °F 18.6 °F 1019.9 in SE 3.7 mph 3.7 mph 62 % 0.0 in
11:14 26.9 °F 18.5 °F 1020.9 in SSE 5.6 mph 5.6 mph 60 % 0.0 in
11:19 27.3 °F 18.6 °F 1020.9 in SSE 6.1 mph 6.1 mph 59 % 0.0 in
11:24 27.2 °F 18.5 °F 1019.9 in SSW 7.4 mph 7.4 mph 59 % 0.0 in
11:29 27.6 °F 18.6 °F 1019.9 in WNW 6.4 mph 6.4 mph 58 % 0.0 in
11:34 27.8 °F 18.5 °F 1019.9 in SSE 1.9 mph 1.9 mph 57 % 0.0 in
11:39 28.4 °F 18.2 °F 1019.9 in SSW 9.3 mph 9.3 mph 54 % 0.0 in
11:44 28.1 °F 18.2 °F 1019.9 in South 9.3 mph 9.3 mph 55 % 0.0 in
11:54 27.8 °F 17.3 °F 1019.9 in WSW 9.3 mph 9.3 mph 53 % 0.0 in
11:59 28.5 °F 17.7 °F 1019.9 in South 5.6 mph 5.6 mph 52 % 0.0 in
12:04 28.9 °F 17.7 °F 1019.9 in WSW 6.4 mph 6.4 mph 51 % 0.0 in
12:09 28.6 °F 17.4 °F 1019.9 in WSW 14.8 mph 14.8 mph 51 % 0.0 in
12:14 28.9 °F 17.4 °F 1019.9 in SSW 6.9 mph 6.9 mph 50 % 0.0 in
12:19 29.4 °F 17.6 °F 1019.9 in SSW 9.3 mph 9.3 mph 49 % 0.0 in
12:24 29.3 °F 17.2 °F 1018.8 in SW 11.1 mph 11.1 mph 48 % 0.0 in
12:29 29.0 °F 16.9 °F 1018.8 in SSW 7.4 mph 7.4 mph 48 % 0.0 in
12:34 29.5 °F 17.0 °F 1018.8 in SW 7.4 mph 7.4 mph 47 % 0.0 in
12:39 29.9 °F 17.0 °F 1019.9 in SSW 9.3 mph 9.3 mph 46 % 0.0 in
12:44 30.1 °F 16.8 °F 1019.9 in SSE 5.0 mph 5.0 mph 45 % 0.0 in
12:49 30.1 °F 17.2 °F 1019.9 in SSE 3.7 mph 3.7 mph 46 % 0.0 in
12:54 30.0 °F 17.1 °F 1019.9 in South 7.4 mph 7.4 mph 46 % 0.0 in
12:59 30.5 °F 17.2 °F 1019.9 in WSW 4.2 mph 4.2 mph 45 % 0.0 in
13:04 30.1 °F 16.5 °F 1019.9 in SW 5.6 mph 5.6 mph 44 % 0.0 in
13:06 30.3 °F 16.7 °F 1019.9 in West 5.6 mph 5.6 mph 44 % 0.0 in
13:11 30.7 °F 17.1 °F 1018.8 in SSW 14.8 mph 14.8 mph 44 % 0.0 in
13:16 31.0 °F 16.6 °F 1018.8 in WSW 5.0 mph 5.0 mph 42 % 0.0 in
13:21 30.9 °F 16.9 °F 1018.8 in WSW 12.6 mph 12.6 mph 43 % 0.0 in
13:26 30.1 °F 15.4 °F 1018.8 in SE 9.3 mph 9.3 mph 41 % 0.0 in
13:31 31.0 °F 16.2 °F 1018.8 in SSW 5.6 mph 5.6 mph 41 % 0.0 in
13:36 31.3 °F 16.5 °F 1018.8 in SW 6.4 mph 6.4 mph 41 % 0.0 in
13:41 31.4 °F 16.6 °F 1018.8 in SW 9.0 mph 9.0 mph 41 % 0.0 in
13:51 31.3 °F 15.7 °F 1018.8 in WSW 9.3 mph 9.3 mph 39 % 0.0 in
13:56 31.2 °F 16.0 °F 1019.9 in West 7.4 mph 7.4 mph 40 % 0.0 in
14:01 31.3 °F 15.3 °F 1019.9 in SE 7.4 mph 7.4 mph 38 % 0.0 in
14:06 31.7 °F 16.4 °F 1019.9 in WSW 9.3 mph 9.3 mph 40 % 0.0 in
14:11 31.4 °F 16.2 °F 1018.8 in SW 5.6 mph 5.6 mph 40 % 0.0 in
14:16 32.2 °F 16.9 °F 1018.8 in South 7.4 mph 7.4 mph 40 % 0.0 in
14:21 32.2 °F 16.9 °F 1018.8 in WSW 7.4 mph 7.4 mph 40 % 0.0 in
14:26 31.8 °F 16.9 °F 1018.8 in SW 13.0 mph 13.0 mph 41 % 0.0 in
14:31 31.9 °F 17.0 °F 1018.8 in South 9.3 mph 9.3 mph 41 % 0.0 in
14:36 32.2 °F 17.3 °F 1018.8 in WSW 7.2 mph 7.2 mph 41 % 0.0 in
14:41 31.8 °F 16.9 °F 1018.8 in SSW 9.7 mph 11.1 mph 41 % 0.0 in
14:46 31.3 °F 16.1 °F 1018.8 in SSE 11.1 mph 11.1 mph 40 % 0.0 in
14:51 31.7 °F 16.8 °F 1018.8 in SSW 11.1 mph 11.1 mph 41 % 0.0 in
14:56 31.9 °F 17.0 °F 1018.8 in SSE 13.0 mph 13.0 mph 41 % 0.0 in
15:01 31.9 °F 17.0 °F 1018.8 in SW 9.3 mph 9.3 mph 41 % 0.0 in
15:06 32.1 °F 16.4 °F 1018.8 in SW 5.8 mph 5.8 mph 39 % 0.0 in
15:11 32.1 °F 16.8 °F 1018.8 in SSE 7.4 mph 7.4 mph 40 % 0.0 in
15:16 32.2 °F 16.9 °F 1018.8 in South 11.1 mph 11.1 mph 40 % 0.0 in
15:21 31.6 °F 15.9 °F 1018.8 in SW 7.4 mph 7.4 mph 39 % 0.0 in
15:26 32.2 °F 16.9 °F 1017.8 in WNW 5.6 mph 5.6 mph 40 % 0.0 in
15:31 32.3 °F 17.0 °F 1017.8 in SSW 5.6 mph 6.1 mph 40 % 0.0 in
15:36 32.1 °F 16.4 °F 1017.8 in South 16.7 mph 16.7 mph 39 % 0.0 in
15:41 31.8 °F 16.1 °F 1017.8 in SW 4.7 mph 4.7 mph 39 % 0.0 in
15:46 31.7 °F 16.1 °F 1017.8 in ESE 9.3 mph 9.3 mph 39 % 0.0 in
15:51 32.1 °F 16.4 °F 1017.8 in SSE 13.0 mph 13.0 mph 39 % 0.0 in
15:56 31.9 °F 16.2 °F 1017.8 in SSW 11.1 mph 11.1 mph 39 % 0.0 in
16:01 31.2 °F 15.2 °F 1017.8 in SW 11.1 mph 11.1 mph 38 % 0.0 in
16:06 31.4 °F 15.8 °F 1017.8 in WSW 14.0 mph 14.0 mph 39 % 0.0 in
16:11 31.2 °F 15.6 °F 1017.8 in SW 14.8 mph 14.8 mph 39 % 0.0 in
16:16 31.2 °F 15.6 °F 1017.8 in SW 9.3 mph 9.3 mph 39 % 0.0 in
16:21 31.1 °F 15.5 °F 1017.8 in SSW 13.0 mph 13.0 mph 39 % 0.0 in
16:26 31.4 °F 15.8 °F 1016.8 in South 7.4 mph 7.4 mph 39 % 0.0 in
16:31 31.6 °F 15.9 °F 1016.8 in SW 13.0 mph 13.0 mph 39 % 0.0 in
16:36 31.3 °F 16.1 °F 1016.8 in South 9.3 mph 9.3 mph 40 % 0.0 in
16:41 31.1 °F 15.5 °F 1017.8 in WSW 18.5 mph 18.5 mph 39 % 0.0 in
16:46 31.0 °F 15.8 °F 1017.8 in WSW 9.3 mph 9.3 mph 40 % 0.0 in
16:51 30.9 °F 16.1 °F 1017.8 in SW 13.0 mph 13.0 mph 41 % 0.0 in
16:56 30.9 °F 16.1 °F 1017.8 in WSW 9.5 mph 9.5 mph 41 % 0.0 in
17:01 30.9 °F 16.5 °F 1017.8 in SW 11.1 mph 11.1 mph 42 % 0.0 in
17:06 30.8 °F 16.4 °F 1017.8 in South 16.7 mph 16.7 mph 42 % 0.0 in
17:11 30.5 °F 16.1 °F 1017.8 in South 20.4 mph 20.4 mph 42 % 0.0 in
17:16 30.2 °F 15.9 °F 1017.8 in SW 13.0 mph 13.0 mph 42 % 0.0 in
17:21 30.6 °F 16.2 °F 1017.8 in SE 9.3 mph 9.3 mph 42 % 0.0 in
17:26 30.2 °F 16.2 °F 1017.8 in SW 11.1 mph 11.1 mph 43 % 0.0 in
17:31 30.5 °F 16.5 °F 1017.8 in SSW 11.9 mph 11.9 mph 43 % 0.0 in
17:36 29.9 °F 16.3 °F 1017.8 in WSW 14.8 mph 14.8 mph 44 % 0.0 in
17:41 29.9 °F 16.3 °F 1017.8 in SW 9.3 mph 9.3 mph 44 % 0.0 in
17:46 29.9 °F 16.3 °F 1017.8 in SW 14.8 mph 14.8 mph 44 % 0.0 in
17:51 29.7 °F 16.2 °F 1017.8 in SSW 13.0 mph 13.0 mph 44 % 0.0 in
17:56 29.9 °F 16.3 °F 1017.8 in SSW 14.8 mph 14.8 mph 44 % 0.0 in
18:01 29.9 °F 16.7 °F 1017.8 in WSW 9.7 mph 9.7 mph 45 % 0.0 in
18:06 29.7 °F 16.5 °F 1017.8 in West 10.0 mph 10.0 mph 45 % 0.0 in
18:11 29.4 °F 16.6 °F 1017.8 in SSW 11.1 mph 11.1 mph 46 % 0.0 in
18:16 29.3 °F 16.5 °F 1017.8 in South 13.0 mph 13.0 mph 46 % 0.0 in
18:21 29.0 °F 16.6 °F 1017.8 in South 9.3 mph 9.3 mph 47 % 0.0 in
18:26 28.9 °F 16.8 °F 1017.8 in South 13.0 mph 13.0 mph 48 % 0.0 in
18:31 29.1 °F 16.6 °F 1017.8 in SW 13.0 mph 13.0 mph 47 % 0.0 in
18:36 28.7 °F 16.9 °F 1017.8 in South 20.4 mph 20.4 mph 49 % 0.0 in
18:41 28.7 °F 16.9 °F 1017.8 in SW 7.4 mph 8.7 mph 49 % 0.0 in
18:46 28.5 °F 16.7 °F 1017.8 in SW 15.6 mph 15.6 mph 49 % 0.0 in
18:51 28.3 °F 16.6 °F 1017.8 in SW 11.1 mph 11.1 mph 49 % 0.0 in
18:56 28.1 °F 16.4 °F 1017.8 in SW 13.0 mph 13.0 mph 49 % 0.0 in
19:01 27.9 °F 16.5 °F 1017.8 in South 9.3 mph 9.3 mph 50 % 0.0 in
19:06 27.9 °F 16.5 °F 1017.8 in SW 16.4 mph 16.4 mph 50 % 0.0 in
19:11 27.6 °F 16.6 °F 1017.8 in SW 9.3 mph 9.3 mph 51 % 0.0 in
19:16 27.3 °F 16.3 °F 1017.8 in WSW 16.7 mph 16.7 mph 51 % 0.0 in
19:21 27.1 °F 16.4 °F 1017.8 in SSW 11.1 mph 11.1 mph 52 % 0.0 in
19:26 26.9 °F 16.5 °F 1017.8 in WNW 9.3 mph 9.3 mph 53 % 0.0 in
19:31 26.7 °F 16.3 °F 1017.8 in SSW 14.0 mph 14.0 mph 53 % 0.0 in
19:36 26.5 °F 16.4 °F 1017.8 in SW 13.0 mph 13.0 mph 54 % 0.0 in
19:41 26.4 °F 16.3 °F 1017.8 in SW 7.4 mph 7.4 mph 54 % 0.0 in
19:46 26.2 °F 16.4 °F 1017.8 in West 16.7 mph 16.7 mph 55 % 0.0 in
19:51 26.1 °F 16.3 °F 1017.8 in SW 13.0 mph 13.0 mph 55 % 0.0 in
19:56 26.0 °F 16.6 °F 1017.8 in SW 11.1 mph 11.1 mph 56 % 0.0 in
20:01 25.7 °F 16.3 °F 1017.8 in WSW 18.5 mph 18.5 mph 56 % 0.0 in
20:06 25.6 °F 16.4 °F 1017.8 in SSW 9.3 mph 9.3 mph 57 % 0.0 in
20:11 25.5 °F 16.3 °F 1017.8 in SSW 9.3 mph 9.3 mph 57 % 0.0 in
20:16 25.3 °F 16.2 °F 1017.8 in WSW 9.3 mph 9.3 mph 57 % 0.0 in
20:21 25.2 °F 16.1 °F 1017.8 in WSW 9.0 mph 9.0 mph 57 % 0.0 in
20:26 25.1 °F 16.3 °F 1017.8 in West 9.3 mph 9.3 mph 58 % 0.0 in
20:31 24.9 °F 16.3 °F 1017.8 in South 13.0 mph 13.0 mph 59 % 0.0 in
20:36 24.8 °F 16.5 °F 1017.8 in WSW 7.4 mph 7.4 mph 60 % 0.0 in
20:41 24.7 °F 16.4 °F 1017.8 in WSW 11.1 mph 11.1 mph 60 % 0.0 in
20:46 24.6 °F 16.3 °F 1017.8 in West 9.3 mph 9.3 mph 60 % 0.0 in
20:51 24.5 °F 16.2 °F 1017.8 in SW 5.6 mph 5.6 mph 60 % 0.0 in
20:56 24.4 °F 16.4 °F 1018.8 in West 5.6 mph 5.6 mph 61 % 0.0 in
21:01 24.3 °F 16.6 °F 1018.8 in WSW 4.7 mph 4.7 mph 62 % 0.0 in
21:06 24.2 °F 16.2 °F 1018.8 in WSW 3.7 mph 4.7 mph 61 % 0.0 in
21:11 24.1 °F 16.4 °F 1018.8 in SSE 3.7 mph 3.7 mph 62 % 0.0 in
21:16 24.0 °F 16.3 °F 1018.8 in SW 6.1 mph 6.1 mph 62 % 0.0 in
21:21 24.0 °F 16.3 °F 1018.8 in SSW 9.3 mph 9.3 mph 62 % 0.0 in
21:26 23.9 °F 16.7 °F 1019.9 in SW 3.7 mph 3.7 mph 64 % 0.0 in
21:30 21.8 °F 18.4 °F 1019.9 in SW 3.2 mph 3.2 mph 81 % 0.0 in
21:31 23.8 °F 16.6 °F 1019.9 in SW 4.2 mph 4.2 mph 64 % 0.0 in
21:36 23.7 °F 16.7 °F 1019.9 in South 3.7 mph 3.7 mph 65 % 0.0 in
21:40 21.7 °F 18.5 °F 1019.9 in WSW 1.6 mph 4.8 mph 82 % 0.0 in
21:41 23.7 °F 16.7 °F 1019.9 in SSW 5.6 mph 5.6 mph 65 % 0.0 in
21:42 23.6 °F 16.9 °F 1019.9 in WSW 5.6 mph 5.6 mph 66 % 0.0 in
21:47 23.6 °F 17.1 °F 1019.9 in SW 4.7 mph 4.7 mph 67 % 0.0 in
21:50 21.5 °F 18.3 °F 1019.9 in WSW 3.2 mph 4.8 mph 82 % 0.0 in
21:52 23.5 °F 17.0 °F 1019.9 in SSW 7.4 mph 7.4 mph 67 % 0.0 in
21:57 23.4 °F 17.2 °F 1019.9 in SW 3.9 mph   68 % 0.0 in
22:00 21.5 °F 18.3 °F 1019.9 in WSW 3.2 mph 4.8 mph 82 % 0.0 in
22:02 23.3 °F 17.1 °F 1019.9 in WSW 3.7 mph 3.7 mph 68 % 0.0 in
22:07 23.3 °F 17.1 °F 1019.9 in SW 3.7 mph 3.7 mph 68 % 0.0 in
22:12 23.3 °F 17.3 °F 1019.9 in SW 5.6 mph 5.6 mph 69 % 0.0 in
22:17 23.2 °F 17.2 °F 1019.9 in SW 3.7 mph 3.7 mph 69 % 0.0 in
22:20 21.4 °F 18.6 °F 1019.9 in Calm   3.2 mph 84 % 0.0 in
22:22 23.1 °F 17.3 °F 1019.9 in SW 3.7 mph 3.9 mph 70 % 0.0 in
22:27 23.1 °F 17.3 °F 1019.9 in SSW 5.6 mph 5.6 mph 70 % 0.0 in
22:30 21.4 °F 18.6 °F 1018.8 in West 1.6 mph 3.2 mph 84 % 0.0 in
22:32 23.1 °F 17.6 °F 1019.9 in WSW 3.7 mph 3.7 mph 71 % 0.0 in
22:37 23.1 °F 17.6 °F 1019.9 in SW 1.9 mph 1.9 mph 71 % 0.0 in
22:40 21.4 °F 18.6 °F 1019.9 in Calm   3.2 mph 84 % 0.0 in
22:42 23.0 °F 17.4 °F 1019.9 in West 3.7 mph 3.7 mph 71 % 0.0 in
22:47 23.0 °F 17.7 °F 1019.9 in WNW 2.3 mph 2.3 mph 72 % 0.0 in
22:50 21.3 °F 18.5 °F 1019.9 in Calm   1.6 mph 84 % 0.0 in
22:52 23.0 °F 17.7 °F 1019.9 in WSW 3.2 mph 3.2 mph 72 % 0.0 in
22:57 23.0 °F 17.7 °F 1018.8 in WSW 3.7 mph 3.7 mph 72 % 0.0 in
23:00 21.2 °F 18.4 °F 1019.9 in Calm     84 % 0.0 in
23:02 22.9 °F 17.8 °F 1018.8 in WSW 3.7 mph 3.7 mph 73 % 0.0 in
23:07 22.9 °F 17.6 °F 1018.8 in WSW 3.7 mph 3.9 mph 72 % 0.0 in
23:10 21.0 °F 18.4 °F 1019.9 in Calm   3.2 mph 85 % 0.0 in
23:12 22.9 °F 17.8 °F 1019.9 in WSW 3.7 mph 3.7 mph 73 % 0.0 in
23:17 22.8 °F 17.7 °F 1019.9 in WSW 3.7 mph 3.7 mph 73 % 0.0 in
23:20 20.9 °F 18.3 °F 1019.9 in ESE 1.6 mph 1.6 mph 85 % 0.0 in
23:22 22.8 °F 17.7 °F 1019.9 in WSW 3.7 mph 3.7 mph 73 % 0.0 in
23:27 22.8 °F 17.9 °F 1019.9 in WSW 3.7 mph 3.7 mph 74 % 0.0 in
23:30 20.7 °F 18.1 °F 1019.9 in Calm   3.2 mph 85 % 0.0 in
23:32 22.7 °F 17.8 °F 1019.9 in WSW 3.7 mph 3.7 mph 74 % 0.0 in
23:37 22.7 °F 17.8 °F 1019.9 in WSW 3.7 mph 3.7 mph 74 % 0.0 in
23:40 20.8 °F 18.4 °F 1019.9 in Calm     86 % 0.0 in
23:42 22.7 °F 17.8 °F 1019.9 in West 3.7 mph 3.7 mph 74 % 0.0 in
23:47 22.7 °F 18.1 °F 1019.9 in West 1.9 mph 1.9 mph 75 % 0.0 in
23:50 20.8 °F 18.4 °F 1019.9 in Calm     86 % 0.0 in
23:52 22.7 °F 18.1 °F 1019.9 in West 3.7 mph 3.7 mph 75 % 0.0 in
23:57 22.7 °F 18.1 °F 1019.9 in SW 3.7 mph 3.7 mph 75 % 0.0 in
Meteo Sesrovires
Elogis d' Weather Underground - 1.5 mb

Guio original per  Jim McMurry - jmcmurry@mwt.net Adaptat per a la plantilla per  Wim van der Kuil - Leuven-Template.eu

Trobareu la nostra informacio del temps tambe a:

Weather Underground

AWEKAS